sensor_id;sensor_type;location;lat;lon;timestamp;temperature;humidity
22173;DHT22;11252;50.596;17.648;2023-02-18T00:01:20;9.70;92.20
22173;DHT22;11252;50.596;17.648;2023-02-18T00:03:48;9.70;92.20
22173;DHT22;11252;50.596;17.648;2023-02-18T00:06:21;9.60;92.20
22173;DHT22;11252;50.596;17.648;2023-02-18T00:08:50;9.60;92.20
22173;DHT22;11252;50.596;17.648;2023-02-18T00:11:19;9.60;92.20
22173;DHT22;11252;50.596;17.648;2023-02-18T00:13:56;9.60;92.20
22173;DHT22;11252;50.596;17.648;2023-02-18T00:16:25;9.50;92.20
22173;DHT22;11252;50.596;17.648;2023-02-18T00:19:01;9.50;92.20
22173;DHT22;11252;50.596;17.648;2023-02-18T00:21:29;9.50;92.20
22173;DHT22;11252;50.596;17.648;2023-02-18T00:23:56;9.40;92.20
22173;DHT22;11252;50.596;17.648;2023-02-18T00:26:24;9.40;92.20
22173;DHT22;11252;50.596;17.648;2023-02-18T00:28:52;9.50;92.20
22173;DHT22;11252;50.596;17.648;2023-02-18T00:31:25;9.40;92.20
22173;DHT22;11252;50.596;17.648;2023-02-18T00:33:53;9.40;92.20
22173;DHT22;11252;50.596;17.648;2023-02-18T00:36:21;9.50;92.20
22173;DHT22;11252;50.596;17.648;2023-02-18T00:38:51;9.50;92.20
22173;DHT22;11252;50.596;17.648;2023-02-18T00:41:20;9.50;92.20
22173;DHT22;11252;50.596;17.648;2023-02-18T00:43:48;9.50;92.20
22173;DHT22;11252;50.596;17.648;2023-02-18T00:46:15;9.40;92.20
22173;DHT22;11252;50.596;17.648;2023-02-18T00:48:43;9.40;92.20
22173;DHT22;11252;50.596;17.648;2023-02-18T00:51:11;9.40;92.20
22173;DHT22;11252;50.596;17.648;2023-02-18T00:53:39;9.30;92.20
22173;DHT22;11252;50.596;17.648;2023-02-18T00:56:06;9.30;92.20
22173;DHT22;11252;50.596;17.648;2023-02-18T00:58:35;9.30;92.20
22173;DHT22;11252;50.596;17.648;2023-02-18T01:01:03;9.30;92.20
22173;DHT22;11252;50.596;17.648;2023-02-18T01:03:34;9.30;92.20
22173;DHT22;11252;50.596;17.648;2023-02-18T01:06:03;9.30;92.20
22173;DHT22;11252;50.596;17.648;2023-02-18T01:08:30;9.30;92.20
22173;DHT22;11252;50.596;17.648;2023-02-18T01:10:58;9.30;92.20
22173;DHT22;11252;50.596;17.648;2023-02-18T01:13:26;9.20;92.20
22173;DHT22;11252;50.596;17.648;2023-02-18T01:15:53;9.20;92.20
22173;DHT22;11252;50.596;17.648;2023-02-18T01:18:21;9.20;92.20
22173;DHT22;11252;50.596;17.648;2023-02-18T01:20:48;9.30;92.20
22173;DHT22;11252;50.596;17.648;2023-02-18T01:23:16;9.20;92.20
22173;DHT22;11252;50.596;17.648;2023-02-18T01:25:44;9.10;92.20
22173;DHT22;11252;50.596;17.648;2023-02-18T01:28:13;9.10;92.20
22173;DHT22;11252;50.596;17.648;2023-02-18T01:30:40;9.00;92.20
22173;DHT22;11252;50.596;17.648;2023-02-18T01:33:09;9.00;92.20
22173;DHT22;11252;50.596;17.648;2023-02-18T01:35:38;8.90;92.20
22173;DHT22;11252;50.596;17.648;2023-02-18T01:38:06;8.90;92.20
22173;DHT22;11252;50.596;17.648;2023-02-18T01:40:35;8.80;92.20
22173;DHT22;11252;50.596;17.648;2023-02-18T01:43:02;8.80;92.20
22173;DHT22;11252;50.596;17.648;2023-02-18T01:48:05;8.80;92.20
22173;DHT22;11252;50.596;17.648;2023-02-18T01:50:36;8.90;92.20
22173;DHT22;11252;50.596;17.648;2023-02-18T01:53:05;9.00;92.20
22173;DHT22;11252;50.596;17.648;2023-02-18T01:55:33;9.20;92.00
22173;DHT22;11252;50.596;17.648;2023-02-18T01:58:02;9.30;89.60
22173;DHT22;11252;50.596;17.648;2023-02-18T02:00:29;9.30;89.90
22173;DHT22;11252;50.596;17.648;2023-02-18T02:02:58;9.20;89.40
22173;DHT22;11252;50.596;17.648;2023-02-18T02:05:30;9.20;88.50
22173;DHT22;11252;50.596;17.648;2023-02-18T02:07:59;9.20;87.90
22173;DHT22;11252;50.596;17.648;2023-02-18T02:10:46;9.20;87.10
22173;DHT22;11252;50.596;17.648;2023-02-18T02:13:49;9.10;86.90
22173;DHT22;11252;50.596;17.648;2023-02-18T02:16:46;9.00;87.20
22173;DHT22;11252;50.596;17.648;2023-02-18T02:33:51;8.60;90.00
22173;DHT22;11252;50.596;17.648;2023-02-18T02:39:00;8.60;90.40
22173;DHT22;11252;50.596;17.648;2023-02-18T02:44:21;8.70;88.80
22173;DHT22;11252;50.596;17.648;2023-02-18T02:46:52;8.90;86.90
22173;DHT22;11252;50.596;17.648;2023-02-18T02:49:36;8.80;87.80
22173;DHT22;11252;50.596;17.648;2023-02-18T02:52:23;8.70;87.30
22173;DHT22;11252;50.596;17.648;2023-02-18T02:54:52;8.70;87.30
22173;DHT22;11252;50.596;17.648;2023-02-18T02:59:50;8.60;84.60
22173;DHT22;11252;50.596;17.648;2023-02-18T03:11:11;8.60;82.50
22173;DHT22;11252;50.596;17.648;2023-02-18T03:14:04;8.60;81.50
22173;DHT22;11252;50.596;17.648;2023-02-18T03:19:23;8.70;79.60
22173;DHT22;11252;50.596;17.648;2023-02-18T03:21:56;8.60;79.90
22173;DHT22;11252;50.596;17.648;2023-02-18T03:24:37;8.50;80.30
22173;DHT22;11252;50.596;17.648;2023-02-18T03:27:16;8.50;80.30
22173;DHT22;11252;50.596;17.648;2023-02-18T03:29:48;8.40;80.50
22173;DHT22;11252;50.596;17.648;2023-02-18T03:32:19;8.30;80.60
22173;DHT22;11252;50.596;17.648;2023-02-18T03:34:52;8.20;81.00
22173;DHT22;11252;50.596;17.648;2023-02-18T03:37:21;8.30;80.50
22173;DHT22;11252;50.596;17.648;2023-02-18T03:39:54;8.20;81.10
22173;DHT22;11252;50.596;17.648;2023-02-18T03:42:27;8.10;81.40
22173;DHT22;11252;50.596;17.648;2023-02-18T03:44:55;8.00;81.70
22173;DHT22;11252;50.596;17.648;2023-02-18T03:47:23;8.10;81.10
22173;DHT22;11252;50.596;17.648;2023-02-18T03:49:51;8.10;80.30
22173;DHT22;11252;50.596;17.648;2023-02-18T03:52:18;8.10;80.60
22173;DHT22;11252;50.596;17.648;2023-02-18T03:54:45;8.10;80.30
22173;DHT22;11252;50.596;17.648;2023-02-18T03:57:13;8.20;79.50
22173;DHT22;11252;50.596;17.648;2023-02-18T03:59:40;8.10;80.00
22173;DHT22;11252;50.596;17.648;2023-02-18T04:02:07;8.10;79.60
22173;DHT22;11252;50.596;17.648;2023-02-18T04:04:34;8.00;79.70
22173;DHT22;11252;50.596;17.648;2023-02-18T04:07:02;8.10;79.40
22173;DHT22;11252;50.596;17.648;2023-02-18T04:09:29;8.00;80.00
22173;DHT22;11252;50.596;17.648;2023-02-18T04:11:57;8.00;79.80
22173;DHT22;11252;50.596;17.648;2023-02-18T04:14:24;7.90;79.40
22173;DHT22;11252;50.596;17.648;2023-02-18T04:16:51;7.90;79.90
22173;DHT22;11252;50.596;17.648;2023-02-18T04:19:19;8.00;79.20
22173;DHT22;11252;50.596;17.648;2023-02-18T04:21:46;7.90;79.40
22173;DHT22;11252;50.596;17.648;2023-02-18T04:24:13;7.90;79.40
22173;DHT22;11252;50.596;17.648;2023-02-18T04:26:40;7.90;79.40
22173;DHT22;11252;50.596;17.648;2023-02-18T04:29:08;7.90;79.00
22173;DHT22;11252;50.596;17.648;2023-02-18T04:31:35;7.90;78.90
22173;DHT22;11252;50.596;17.648;2023-02-18T04:34:02;8.00;78.50
22173;DHT22;11252;50.596;17.648;2023-02-18T04:36:30;8.10;77.40
22173;DHT22;11252;50.596;17.648;2023-02-18T04:38:57;8.10;77.10
22173;DHT22;11252;50.596;17.648;2023-02-18T04:41:25;8.00;78.00
22173;DHT22;11252;50.596;17.648;2023-02-18T04:43:52;7.90;77.60
22173;DHT22;11252;50.596;17.648;2023-02-18T04:46:20;8.00;77.30
22173;DHT22;11252;50.596;17.648;2023-02-18T04:48:47;8.10;75.90
22173;DHT22;11252;50.596;17.648;2023-02-18T04:51:15;8.10;76.20
22173;DHT22;11252;50.596;17.648;2023-02-18T04:53:42;8.10;76.40
22173;DHT22;11252;50.596;17.648;2023-02-18T04:56:10;8.10;76.20
22173;DHT22;11252;50.596;17.648;2023-02-18T04:58:37;8.20;75.80
22173;DHT22;11252;50.596;17.648;2023-02-18T05:01:05;8.10;75.90
22173;DHT22;11252;50.596;17.648;2023-02-18T05:03:32;8.10;76.20
22173;DHT22;11252;50.596;17.648;2023-02-18T05:06:00;8.10;76.30
22173;DHT22;11252;50.596;17.648;2023-02-18T05:08:28;8.10;76.30
22173;DHT22;11252;50.596;17.648;2023-02-18T05:10:55;8.20;76.30
22173;DHT22;11252;50.596;17.648;2023-02-18T05:13:22;8.20;75.60
22173;DHT22;11252;50.596;17.648;2023-02-18T05:15:51;8.40;75.00
22173;DHT22;11252;50.596;17.648;2023-02-18T05:18:18;8.30;75.00
22173;DHT22;11252;50.596;17.648;2023-02-18T05:20:45;8.30;75.80
22173;DHT22;11252;50.596;17.648;2023-02-18T05:23:13;8.20;75.80
22173;DHT22;11252;50.596;17.648;2023-02-18T05:25:40;8.20;75.90
22173;DHT22;11252;50.596;17.648;2023-02-18T05:28:08;8.20;75.80
22173;DHT22;11252;50.596;17.648;2023-02-18T05:30:35;8.20;76.00
22173;DHT22;11252;50.596;17.648;2023-02-18T05:33:05;8.20;75.70
22173;DHT22;11252;50.596;17.648;2023-02-18T05:35:32;8.30;75.80
22173;DHT22;11252;50.596;17.648;2023-02-18T05:37:59;8.20;76.40
22173;DHT22;11252;50.596;17.648;2023-02-18T05:40:26;8.20;75.60
22173;DHT22;11252;50.596;17.648;2023-02-18T05:42:54;8.20;76.00
22173;DHT22;11252;50.596;17.648;2023-02-18T05:45:21;8.10;76.60
22173;DHT22;11252;50.596;17.648;2023-02-18T05:47:48;8.20;76.40
22173;DHT22;11252;50.596;17.648;2023-02-18T05:50:16;8.10;76.70
22173;DHT22;11252;50.596;17.648;2023-02-18T05:52:43;8.10;77.10
22173;DHT22;11252;50.596;17.648;2023-02-18T05:55:11;8.20;76.30
22173;DHT22;11252;50.596;17.648;2023-02-18T05:57:39;8.20;76.70
22173;DHT22;11252;50.596;17.648;2023-02-18T06:00:07;8.20;76.90
22173;DHT22;11252;50.596;17.648;2023-02-18T06:02:37;8.20;76.20
22173;DHT22;11252;50.596;17.648;2023-02-18T06:05:05;8.30;76.30
22173;DHT22;11252;50.596;17.648;2023-02-18T06:07:32;8.30;76.50
22173;DHT22;11252;50.596;17.648;2023-02-18T06:09:59;8.30;76.90
22173;DHT22;11252;50.596;17.648;2023-02-18T06:12:27;8.30;76.80
22173;DHT22;11252;50.596;17.648;2023-02-18T06:14:54;8.30;76.90
22173;DHT22;11252;50.596;17.648;2023-02-18T06:17:22;8.30;77.10
22173;DHT22;11252;50.596;17.648;2023-02-18T06:19:49;8.30;77.60
22173;DHT22;11252;50.596;17.648;2023-02-18T06:22:16;8.30;77.40
22173;DHT22;11252;50.596;17.648;2023-02-18T06:24:43;8.30;77.60
22173;DHT22;11252;50.596;17.648;2023-02-18T06:27:11;8.30;77.80
22173;DHT22;11252;50.596;17.648;2023-02-18T06:29:38;8.20;78.30
22173;DHT22;11252;50.596;17.648;2023-02-18T06:32:06;8.20;78.70
22173;DHT22;11252;50.596;17.648;2023-02-18T06:34:33;8.20;79.20
22173;DHT22;11252;50.596;17.648;2023-02-18T06:37:01;8.30;78.50
22173;DHT22;11252;50.596;17.648;2023-02-18T06:39:28;8.30;78.60
22173;DHT22;11252;50.596;17.648;2023-02-18T06:41:56;8.30;79.30
22173;DHT22;11252;50.596;17.648;2023-02-18T06:44:24;8.30;79.00
22173;DHT22;11252;50.596;17.648;2023-02-18T06:46:52;8.30;79.20
22173;DHT22;11252;50.596;17.648;2023-02-18T06:49:19;8.40;79.30
22173;DHT22;11252;50.596;17.648;2023-02-18T06:51:47;8.40;79.30
22173;DHT22;11252;50.596;17.648;2023-02-18T06:54:14;8.30;79.90
22173;DHT22;11252;50.596;17.648;2023-02-18T06:56:41;8.40;79.60
22173;DHT22;11252;50.596;17.648;2023-02-18T06:59:09;8.40;79.70
22173;DHT22;11252;50.596;17.648;2023-02-18T07:01:37;8.50;79.20
22173;DHT22;11252;50.596;17.648;2023-02-18T07:04:05;8.50;79.40
22173;DHT22;11252;50.596;17.648;2023-02-18T07:06:32;8.40;80.30
22173;DHT22;11252;50.596;17.648;2023-02-18T07:08:59;8.50;79.50
22173;DHT22;11252;50.596;17.648;2023-02-18T07:11:27;8.50;80.40
22173;DHT22;11252;50.596;17.648;2023-02-18T07:13:54;8.40;80.70
22173;DHT22;11252;50.596;17.648;2023-02-18T07:16:22;8.40;80.90
22173;DHT22;11252;50.596;17.648;2023-02-18T07:18:49;8.40;80.90
22173;DHT22;11252;50.596;17.648;2023-02-18T07:21:17;8.40;81.10
22173;DHT22;11252;50.596;17.648;2023-02-18T07:23:44;8.50;81.30
22173;DHT22;11252;50.596;17.648;2023-02-18T07:26:13;8.50;81.80
22173;DHT22;11252;50.596;17.648;2023-02-18T07:28:41;8.50;82.40
22173;DHT22;11252;50.596;17.648;2023-02-18T07:31:08;8.50;82.70
22173;DHT22;11252;50.596;17.648;2023-02-18T07:33:36;8.60;82.30
22173;DHT22;11252;50.596;17.648;2023-02-18T07:36:03;8.60;82.40
22173;DHT22;11252;50.596;17.648;2023-02-18T07:38:31;8.60;83.00
22173;DHT22;11252;50.596;17.648;2023-02-18T07:40:59;8.60;83.30
22173;DHT22;11252;50.596;17.648;2023-02-18T07:43:31;8.60;83.40
22173;DHT22;11252;50.596;17.648;2023-02-18T07:45:59;8.60;83.60
22173;DHT22;11252;50.596;17.648;2023-02-18T07:48:26;8.60;83.50
22173;DHT22;11252;50.596;17.648;2023-02-18T07:50:53;8.70;83.80
22173;DHT22;11252;50.596;17.648;2023-02-18T07:53:22;8.60;83.90
22173;DHT22;11252;50.596;17.648;2023-02-18T07:55:50;8.60;84.30
22173;DHT22;11252;50.596;17.648;2023-02-18T07:58:23;8.60;84.60
22173;DHT22;11252;50.596;17.648;2023-02-18T08:00:53;8.60;84.60
22173;DHT22;11252;50.596;17.648;2023-02-18T08:03:26;8.70;84.40
22173;DHT22;11252;50.596;17.648;2023-02-18T08:05:54;8.70;84.60
22173;DHT22;11252;50.596;17.648;2023-02-18T08:08:24;8.70;84.60
22173;DHT22;11252;50.596;17.648;2023-02-18T08:10:54;8.70;84.40
22173;DHT22;11252;50.596;17.648;2023-02-18T08:13:22;8.70;85.20
22173;DHT22;11252;50.596;17.648;2023-02-18T08:15:50;8.70;85.00
22173;DHT22;11252;50.596;17.648;2023-02-18T08:18:21;8.80;84.40
22173;DHT22;11252;50.596;17.648;2023-02-18T08:20:50;8.80;84.40
22173;DHT22;11252;50.596;17.648;2023-02-18T08:23:22;8.80;84.00
22173;DHT22;11252;50.596;17.648;2023-02-18T08:25:50;8.80;84.70
22173;DHT22;11252;50.596;17.648;2023-02-18T08:28:20;8.90;84.30
22173;DHT22;11252;50.596;17.648;2023-02-18T08:30:50;8.80;84.30
22173;DHT22;11252;50.596;17.648;2023-02-18T08:33:18;8.90;84.70
22173;DHT22;11252;50.596;17.648;2023-02-18T08:35:47;9.00;83.90
22173;DHT22;11252;50.596;17.648;2023-02-18T08:38:15;9.10;83.60
22173;DHT22;11252;50.596;17.648;2023-02-18T08:40:44;9.10;82.90
22173;DHT22;11252;50.596;17.648;2023-02-18T08:43:13;9.10;82.60
22173;DHT22;11252;50.596;17.648;2023-02-18T08:45:41;9.10;82.70
22173;DHT22;11252;50.596;17.648;2023-02-18T08:48:11;9.20;82.50
22173;DHT22;11252;50.596;17.648;2023-02-18T08:50:47;9.20;82.90
22173;DHT22;11252;50.596;17.648;2023-02-18T08:53:15;9.20;83.00
22173;DHT22;11252;50.596;17.648;2023-02-18T08:55:46;9.20;82.30
22173;DHT22;11252;50.596;17.648;2023-02-18T08:58:13;9.30;82.10
22173;DHT22;11252;50.596;17.648;2023-02-18T09:00:42;9.30;82.20
22173;DHT22;11252;50.596;17.648;2023-02-18T09:03:12;9.40;82.10
22173;DHT22;11252;50.596;17.648;2023-02-18T09:05:40;9.50;81.50
22173;DHT22;11252;50.596;17.648;2023-02-18T09:08:07;9.50;81.60
22173;DHT22;11252;50.596;17.648;2023-02-18T09:10:35;9.40;82.00
22173;DHT22;11252;50.596;17.648;2023-02-18T09:13:03;9.30;79.80
22173;DHT22;11252;50.596;17.648;2023-02-18T09:15:31;9.20;79.80
22173;DHT22;11252;50.596;17.648;2023-02-18T09:17:58;9.10;80.40
22173;DHT22;11252;50.596;17.648;2023-02-18T09:20:26;9.10;81.10
22173;DHT22;11252;50.596;17.648;2023-02-18T09:22:55;9.00;81.30
22173;DHT22;11252;50.596;17.648;2023-02-18T09:25:23;9.00;82.10
22173;DHT22;11252;50.596;17.648;2023-02-18T09:27:52;9.00;82.40
22173;DHT22;11252;50.596;17.648;2023-02-18T09:30:23;8.90;82.80
22173;DHT22;11252;50.596;17.648;2023-02-18T09:32:52;8.90;82.70
22173;DHT22;11252;50.596;17.648;2023-02-18T09:35:20;8.80;83.40
22173;DHT22;11252;50.596;17.648;2023-02-18T09:37:47;8.80;82.50
22173;DHT22;11252;50.596;17.648;2023-02-18T09:40:25;8.70;83.40
22173;DHT22;11252;50.596;17.648;2023-02-18T09:42:54;8.70;83.20
22173;DHT22;11252;50.596;17.648;2023-02-18T09:45:26;8.70;84.40
22173;DHT22;11252;50.596;17.648;2023-02-18T09:47:54;8.60;85.80
22173;DHT22;11252;50.596;17.648;2023-02-18T09:50:25;8.60;86.20
22173;DHT22;11252;50.596;17.648;2023-02-18T09:52:54;8.60;86.60
22173;DHT22;11252;50.596;17.648;2023-02-18T09:55:36;8.60;87.00
22173;DHT22;11252;50.596;17.648;2023-02-18T09:58:11;8.60;87.20
22173;DHT22;11252;50.596;17.648;2023-02-18T10:00:42;8.50;87.80
22173;DHT22;11252;50.596;17.648;2023-02-18T10:03:14;8.40;88.30
22173;DHT22;11252;50.596;17.648;2023-02-18T10:05:57;8.40;88.80
22173;DHT22;11252;50.596;17.648;2023-02-18T10:08:34;8.40;89.30
22173;DHT22;11252;50.596;17.648;2023-02-18T10:11:03;8.40;89.80
22173;DHT22;11252;50.596;17.648;2023-02-18T10:13:32;8.40;89.70
22173;DHT22;11252;50.596;17.648;2023-02-18T10:16:00;8.40;90.20
22173;DHT22;11252;50.596;17.648;2023-02-18T10:18:34;8.40;90.60
22173;DHT22;11252;50.596;17.648;2023-02-18T10:21:12;8.40;91.20
22173;DHT22;11252;50.596;17.648;2023-02-18T10:24:03;8.40;91.40
22173;DHT22;11252;50.596;17.648;2023-02-18T10:26:34;8.40;92.10
22173;DHT22;11252;50.596;17.648;2023-02-18T10:29:02;8.40;91.80
22173;DHT22;11252;50.596;17.648;2023-02-18T10:31:36;8.40;92.10
22173;DHT22;11252;50.596;17.648;2023-02-18T10:39:20;8.40;92.20
22173;DHT22;11252;50.596;17.648;2023-02-18T10:42:04;8.40;92.20
22173;DHT22;11252;50.596;17.648;2023-02-18T10:47:42;8.60;92.20
22173;DHT22;11252;50.596;17.648;2023-02-18T10:50:41;8.60;91.90
22173;DHT22;11252;50.596;17.648;2023-02-18T10:53:33;8.60;92.10
22173;DHT22;11252;50.596;17.648;2023-02-18T10:56:02;8.70;92.00
22173;DHT22;11252;50.596;17.648;2023-02-18T10:58:34;8.80;92.10
22173;DHT22;11252;50.596;17.648;2023-02-18T11:01:05;8.80;92.20
22173;DHT22;11252;50.596;17.648;2023-02-18T11:03:41;8.80;91.60
22173;DHT22;11252;50.596;17.648;2023-02-18T11:08:49;8.80;92.20
22173;DHT22;11252;50.596;17.648;2023-02-18T11:11:46;8.90;92.20
22173;DHT22;11252;50.596;17.648;2023-02-18T11:14:39;8.90;92.20
22173;DHT22;11252;50.596;17.648;2023-02-18T11:17:17;8.80;92.20
22173;DHT22;11252;50.596;17.648;2023-02-18T11:19:53;8.70;92.20
22173;DHT22;11252;50.596;17.648;2023-02-18T11:22:34;8.70;92.20
22173;DHT22;11252;50.596;17.648;2023-02-18T11:25:22;8.60;92.20
22173;DHT22;11252;50.596;17.648;2023-02-18T11:27:56;8.60;92.20
22173;DHT22;11252;50.596;17.648;2023-02-18T11:30:40;8.60;92.20
22173;DHT22;11252;50.596;17.648;2023-02-18T11:33:32;8.60;92.20
22173;DHT22;11252;50.596;17.648;2023-02-18T11:36:30;8.60;92.20
22173;DHT22;11252;50.596;17.648;2023-02-18T11:39:01;8.60;92.20
22173;DHT22;11252;50.596;17.648;2023-02-18T11:41:39;8.60;92.20
22173;DHT22;11252;50.596;17.648;2023-02-18T11:44:35;8.60;92.20
22173;DHT22;11252;50.596;17.648;2023-02-18T11:47:52;8.50;92.20
22173;DHT22;11252;50.596;17.648;2023-02-18T11:50:20;8.40;92.20
22173;DHT22;11252;50.596;17.648;2023-02-18T11:52:50;8.50;92.20
22173;DHT22;11252;50.596;17.648;2023-02-18T11:55:19;8.50;92.20
22173;DHT22;11252;50.596;17.648;2023-02-18T11:58:11;8.40;92.20
22173;DHT22;11252;50.596;17.648;2023-02-18T12:00:44;8.40;92.20
22173;DHT22;11252;50.596;17.648;2023-02-18T12:05:59;8.30;92.20
22173;DHT22;11252;50.596;17.648;2023-02-18T12:08:31;8.40;92.20
22173;DHT22;11252;50.596;17.648;2023-02-18T12:11:08;8.40;92.20
22173;DHT22;11252;50.596;17.648;2023-02-18T12:13:54;8.40;92.20
22173;DHT22;11252;50.596;17.648;2023-02-18T12:16:38;8.30;92.20
22173;DHT22;11252;50.596;17.648;2023-02-18T12:19:45;8.30;92.20
22173;DHT22;11252;50.596;17.648;2023-02-18T12:36:22;8.30;92.20
22173;DHT22;11252;50.596;17.648;2023-02-18T12:51:42;8.10;92.20
22173;DHT22;11252;50.596;17.648;2023-02-18T12:57:18;8.10;92.20
22173;DHT22;11252;50.596;17.648;2023-02-18T13:08:34;8.10;92.20
22173;DHT22;11252;50.596;17.648;2023-02-18T13:16:25;7.90;92.20
22173;DHT22;11252;50.596;17.648;2023-02-18T13:19:10;7.90;92.20
22173;DHT22;11252;50.596;17.648;2023-02-18T13:21:41;7.90;92.20
22173;DHT22;11252;50.596;17.648;2023-02-18T13:24:13;7.90;92.20
22173;DHT22;11252;50.596;17.648;2023-02-18T13:26:45;7.90;92.20
22173;DHT22;11252;50.596;17.648;2023-02-18T13:32:13;7.80;92.20
22173;DHT22;11252;50.596;17.648;2023-02-18T13:35:16;7.70;92.20
22173;DHT22;11252;50.596;17.648;2023-02-18T13:38:01;7.60;92.20
22173;DHT22;11252;50.596;17.648;2023-02-18T13:40:32;7.60;92.20
22173;DHT22;11252;50.596;17.648;2023-02-18T13:43:28;7.50;92.20
22173;DHT22;11252;50.596;17.648;2023-02-18T13:46:11;7.50;92.20
22173;DHT22;11252;50.596;17.648;2023-02-18T13:51:40;7.40;92.20
22173;DHT22;11252;50.596;17.648;2023-02-18T13:56:42;7.30;92.20
22173;DHT22;11252;50.596;17.648;2023-02-18T13:59:10;7.30;92.20
22173;DHT22;11252;50.596;17.648;2023-02-18T14:01:46;7.40;92.20
22173;DHT22;11252;50.596;17.648;2023-02-18T14:04:51;7.30;92.20
22173;DHT22;11252;50.596;17.648;2023-02-18T14:07:43;7.30;92.20
22173;DHT22;11252;50.596;17.648;2023-02-18T14:18:19;7.10;92.20
22173;DHT22;11252;50.596;17.648;2023-02-18T14:20:49;7.10;92.20
22173;DHT22;11252;50.596;17.648;2023-02-18T14:39:53;7.10;92.20
22173;DHT22;11252;50.596;17.648;2023-02-18T14:45:49;7.10;92.20
22173;DHT22;11252;50.596;17.648;2023-02-18T14:51:29;7.10;92.20
22173;DHT22;11252;50.596;17.648;2023-02-18T14:54:05;7.10;92.20
22173;DHT22;11252;50.596;17.648;2023-02-18T14:56:52;7.00;92.20
22173;DHT22;11252;50.596;17.648;2023-02-18T14:59:24;7.10;92.20
22173;DHT22;11252;50.596;17.648;2023-02-18T15:01:56;7.10;92.20
22173;DHT22;11252;50.596;17.648;2023-02-18T15:04:25;7.00;92.20
22173;DHT22;11252;50.596;17.648;2023-02-18T15:07:04;7.00;92.20
22173;DHT22;11252;50.596;17.648;2023-02-18T15:09:34;7.10;92.20
22173;DHT22;11252;50.596;17.648;2023-02-18T15:12:17;7.10;92.20
22173;DHT22;11252;50.596;17.648;2023-02-18T15:14:48;7.10;92.20
22173;DHT22;11252;50.596;17.648;2023-02-18T15:17:23;7.30;92.20
22173;DHT22;11252;50.596;17.648;2023-02-18T15:19:56;7.30;92.20
22173;DHT22;11252;50.596;17.648;2023-02-18T15:22:30;7.40;92.20
22173;DHT22;11252;50.596;17.648;2023-02-18T15:25:00;7.40;92.20
22173;DHT22;11252;50.596;17.648;2023-02-18T15:27:30;7.40;92.20
22173;DHT22;11252;50.596;17.648;2023-02-18T15:32:43;7.60;92.20
22173;DHT22;11252;50.596;17.648;2023-02-18T15:35:16;7.70;92.20
22173;DHT22;11252;50.596;17.648;2023-02-18T15:37:46;7.70;92.20
22173;DHT22;11252;50.596;17.648;2023-02-18T15:40:14;7.80;92.20
22173;DHT22;11252;50.596;17.648;2023-02-18T15:42:46;7.90;92.20
22173;DHT22;11252;50.596;17.648;2023-02-18T15:47:53;8.10;92.20
22173;DHT22;11252;50.596;17.648;2023-02-18T15:50:47;8.30;92.20
22173;DHT22;11252;50.596;17.648;2023-02-18T15:53:17;8.80;92.20
22173;DHT22;11252;50.596;17.648;2023-02-18T15:55:49;9.40;92.20
22173;DHT22;11252;50.596;17.648;2023-02-18T15:58:25;9.70;92.20
22173;DHT22;11252;50.596;17.648;2023-02-18T16:00:59;9.90;92.20
22173;DHT22;11252;50.596;17.648;2023-02-18T16:03:29;10.20;92.20
22173;DHT22;11252;50.596;17.648;2023-02-18T16:06:30;10.30;92.20
22173;DHT22;11252;50.596;17.648;2023-02-18T16:09:23;10.30;92.20
22173;DHT22;11252;50.596;17.648;2023-02-18T16:11:54;10.30;92.20
22173;DHT22;11252;50.596;17.648;2023-02-18T16:14:30;10.10;92.20
22173;DHT22;11252;50.596;17.648;2023-02-18T16:20:14;10.00;92.20
22173;DHT22;11252;50.596;17.648;2023-02-18T16:22:44;9.90;92.20
22173;DHT22;11252;50.596;17.648;2023-02-18T16:28:15;9.90;92.20
22173;DHT22;11252;50.596;17.648;2023-02-18T16:30:46;9.80;92.20
22173;DHT22;11252;50.596;17.648;2023-02-18T16:33:18;9.80;92.20
22173;DHT22;11252;50.596;17.648;2023-02-18T16:35:47;9.80;92.20
22173;DHT22;11252;50.596;17.648;2023-02-18T16:38:21;9.80;92.20
22173;DHT22;11252;50.596;17.648;2023-02-18T16:40:53;9.80;92.20
22173;DHT22;11252;50.596;17.648;2023-02-18T16:43:23;9.80;92.20
22173;DHT22;11252;50.596;17.648;2023-02-18T16:45:53;9.90;92.20
22173;DHT22;11252;50.596;17.648;2023-02-18T16:48:34;9.90;92.20
22173;DHT22;11252;50.596;17.648;2023-02-18T16:51:28;10.00;92.20
22173;DHT22;11252;50.596;17.648;2023-02-18T16:53:56;10.10;92.20
22173;DHT22;11252;50.596;17.648;2023-02-18T16:56:26;10.20;92.20
22173;DHT22;11252;50.596;17.648;2023-02-18T16:58:56;10.20;92.20
22173;DHT22;11252;50.596;17.648;2023-02-18T17:01:27;10.20;92.20
22173;DHT22;11252;50.596;17.648;2023-02-18T17:03:57;10.10;92.20
22173;DHT22;11252;50.596;17.648;2023-02-18T17:06:25;10.10;92.20
22173;DHT22;11252;50.596;17.648;2023-02-18T17:08:53;10.00;92.20
22173;DHT22;11252;50.596;17.648;2023-02-18T17:11:29;10.00;92.20
22173;DHT22;11252;50.596;17.648;2023-02-18T17:13:56;10.10;92.20
22173;DHT22;11252;50.596;17.648;2023-02-18T17:16:26;10.20;92.20
22173;DHT22;11252;50.596;17.648;2023-02-18T17:18:53;10.20;92.20
22173;DHT22;11252;50.596;17.648;2023-02-18T17:21:23;10.10;92.20
22173;DHT22;11252;50.596;17.648;2023-02-18T17:23:51;10.10;92.20
22173;DHT22;11252;50.596;17.648;2023-02-18T17:26:23;10.10;92.20
22173;DHT22;11252;50.596;17.648;2023-02-18T17:28:52;10.10;92.20
22173;DHT22;11252;50.596;17.648;2023-02-18T17:31:22;10.20;92.20
22173;DHT22;11252;50.596;17.648;2023-02-18T17:33:53;10.10;92.20
22173;DHT22;11252;50.596;17.648;2023-02-18T17:36:23;10.10;92.20
22173;DHT22;11252;50.596;17.648;2023-02-18T17:38:51;10.20;92.20
22173;DHT22;11252;50.596;17.648;2023-02-18T17:41:18;10.20;92.20
22173;DHT22;11252;50.596;17.648;2023-02-18T17:43:48;10.20;92.20
22173;DHT22;11252;50.596;17.648;2023-02-18T17:46:17;10.20;92.20
22173;DHT22;11252;50.596;17.648;2023-02-18T17:48:46;10.20;92.20
22173;DHT22;11252;50.596;17.648;2023-02-18T17:51:25;10.20;92.20
22173;DHT22;11252;50.596;17.648;2023-02-18T17:53:53;10.20;92.20
22173;DHT22;11252;50.596;17.648;2023-02-18T17:56:22;10.20;92.20
22173;DHT22;11252;50.596;17.648;2023-02-18T17:58:52;10.20;92.20
22173;DHT22;11252;50.596;17.648;2023-02-18T18:01:20;10.20;92.20
22173;DHT22;11252;50.596;17.648;2023-02-18T18:03:49;10.10;92.20
22173;DHT22;11252;50.596;17.648;2023-02-18T18:06:19;10.00;92.20
22173;DHT22;11252;50.596;17.648;2023-02-18T18:08:48;10.00;92.20
22173;DHT22;11252;50.596;17.648;2023-02-18T18:11:19;10.00;92.20
22173;DHT22;11252;50.596;17.648;2023-02-18T18:13:47;10.00;92.20
22173;DHT22;11252;50.596;17.648;2023-02-18T18:16:16;10.00;92.20
22173;DHT22;11252;50.596;17.648;2023-02-18T18:18:44;10.00;92.20
22173;DHT22;11252;50.596;17.648;2023-02-18T18:21:32;9.90;92.20
22173;DHT22;11252;50.596;17.648;2023-02-18T18:24:01;10.00;92.20